sensor_id;sensor_type;location;lat;lon;timestamp;P1;durP1;ratioP1;P2;durP2;ratioP2
69369;SDS011;56530;42.640;23.372;2023-03-05T00:02:07;29.58;;;17.88;;
69369;SDS011;56530;42.640;23.372;2023-03-05T00:04:33;31.92;;;17.05;;
69369;SDS011;56530;42.640;23.372;2023-03-05T00:06:58;28.00;;;17.77;;
69369;SDS011;56530;42.640;23.372;2023-03-05T00:09:23;28.00;;;17.13;;
69369;SDS011;56530;42.640;23.372;2023-03-05T00:11:49;26.88;;;16.15;;
69369;SDS011;56530;42.640;23.372;2023-03-05T00:14:14;29.13;;;18.40;;
69369;SDS011;56530;42.640;23.372;2023-03-05T00:16:40;35.88;;;18.80;;
69369;SDS011;56530;42.640;23.372;2023-03-05T00:19:05;29.27;;;17.63;;
69369;SDS011;56530;42.640;23.372;2023-03-05T00:21:35;30.80;;;18.60;;
69369;SDS011;56530;42.640;23.372;2023-03-05T00:24:03;33.63;;;18.13;;
69369;SDS011;56530;42.640;23.372;2023-03-05T00:26:31;35.03;;;19.02;;
69369;SDS011;56530;42.640;23.372;2023-03-05T00:28:58;28.48;;;17.13;;
69369;SDS011;56530;42.640;23.372;2023-03-05T00:31:27;27.45;;;17.15;;
69369;SDS011;56530;42.640;23.372;2023-03-05T00:33:58;35.25;;;19.13;;
69369;SDS011;56530;42.640;23.372;2023-03-05T00:36:25;25.48;;;17.60;;
69369;SDS011;56530;42.640;23.372;2023-03-05T00:38:51;26.77;;;17.30;;
69369;SDS011;56530;42.640;23.372;2023-03-05T00:41:17;28.15;;;17.25;;
69369;SDS011;56530;42.640;23.372;2023-03-05T00:43:43;28.35;;;17.77;;
69369;SDS011;56530;42.640;23.372;2023-03-05T00:46:08;30.05;;;17.88;;
69369;SDS011;56530;42.640;23.372;2023-03-05T00:48:34;25.80;;;18.15;;
69369;SDS011;56530;42.640;23.372;2023-03-05T00:50:59;27.25;;;19.67;;
69369;SDS011;56530;42.640;23.372;2023-03-05T00:53:25;27.60;;;18.40;;
69369;SDS011;56530;42.640;23.372;2023-03-05T00:55:50;26.85;;;19.73;;
69369;SDS011;56530;42.640;23.372;2023-03-05T00:58:16;38.22;;;20.23;;
69369;SDS011;56530;42.640;23.372;2023-03-05T01:00:41;28.52;;;19.42;;
69369;SDS011;56530;42.640;23.372;2023-03-05T01:03:07;25.52;;;19.23;;
69369;SDS011;56530;42.640;23.372;2023-03-05T01:05:33;28.75;;;19.00;;
69369;SDS011;56530;42.640;23.372;2023-03-05T01:07:58;28.58;;;19.80;;
69369;SDS011;56530;42.640;23.372;2023-03-05T01:10:24;29.23;;;19.60;;
69369;SDS011;56530;42.640;23.372;2023-03-05T01:12:54;28.05;;;18.15;;
69369;SDS011;56530;42.640;23.372;2023-03-05T01:15:21;31.33;;;18.58;;
69369;SDS011;56530;42.640;23.372;2023-03-05T01:17:47;28.38;;;17.75;;
69369;SDS011;56530;42.640;23.372;2023-03-05T01:20:13;27.98;;;19.13;;
69369;SDS011;56530;42.640;23.372;2023-03-05T01:22:39;26.00;;;17.90;;
69369;SDS011;56530;42.640;23.372;2023-03-05T01:25:05;27.92;;;16.95;;
69369;SDS011;56530;42.640;23.372;2023-03-05T01:27:31;27.40;;;18.25;;
69369;SDS011;56530;42.640;23.372;2023-03-05T01:29:56;22.48;;;16.35;;
69369;SDS011;56530;42.640;23.372;2023-03-05T01:32:22;28.55;;;15.88;;
69369;SDS011;56530;42.640;23.372;2023-03-05T01:34:47;24.17;;;16.48;;
69369;SDS011;56530;42.640;23.372;2023-03-05T01:37:12;23.13;;;15.05;;
69369;SDS011;56530;42.640;23.372;2023-03-05T01:39:38;23.88;;;14.75;;
69369;SDS011;56530;42.640;23.372;2023-03-05T01:42:03;25.50;;;17.77;;
69369;SDS011;56530;42.640;23.372;2023-03-05T01:44:29;26.70;;;19.00;;
69369;SDS011;56530;42.640;23.372;2023-03-05T01:46:55;24.15;;;17.80;;
69369;SDS011;56530;42.640;23.372;2023-03-05T01:49:34;23.92;;;15.25;;
69369;SDS011;56530;42.640;23.372;2023-03-05T01:52:11;21.63;;;14.90;;
69369;SDS011;56530;42.640;23.372;2023-03-05T01:54:49;22.00;;;15.15;;
69369;SDS011;56530;42.640;23.372;2023-03-05T01:57:26;19.05;;;14.18;;
69369;SDS011;56530;42.640;23.372;2023-03-05T01:59:55;23.02;;;14.57;;
69369;SDS011;56530;42.640;23.372;2023-03-05T02:02:22;20.63;;;14.88;;
69369;SDS011;56530;42.640;23.372;2023-03-05T02:04:52;21.45;;;14.30;;
69369;SDS011;56530;42.640;23.372;2023-03-05T02:07:20;20.42;;;14.82;;
69369;SDS011;56530;42.640;23.372;2023-03-05T02:09:46;20.17;;;14.02;;
69369;SDS011;56530;42.640;23.372;2023-03-05T02:12:11;18.27;;;13.90;;
69369;SDS011;56530;42.640;23.372;2023-03-05T02:14:37;20.40;;;13.95;;
69369;SDS011;56530;42.640;23.372;2023-03-05T02:17:05;26.88;;;16.88;;
69369;SDS011;56530;42.640;23.372;2023-03-05T02:19:48;22.95;;;14.80;;
69369;SDS011;56530;42.640;23.372;2023-03-05T02:22:15;21.45;;;13.95;;
69369;SDS011;56530;42.640;23.372;2023-03-05T02:24:42;24.00;;;14.00;;
69369;SDS011;56530;42.640;23.372;2023-03-05T02:27:07;19.52;;;13.73;;
69369;SDS011;56530;42.640;23.372;2023-03-05T02:29:32;25.40;;;13.23;;
69369;SDS011;56530;42.640;23.372;2023-03-05T02:31:59;19.80;;;14.02;;
69369;SDS011;56530;42.640;23.372;2023-03-05T02:34:25;26.05;;;14.18;;
69369;SDS011;56530;42.640;23.372;2023-03-05T02:36:50;19.15;;;13.73;;
69369;SDS011;56530;42.640;23.372;2023-03-05T02:39:16;18.15;;;13.57;;
69369;SDS011;56530;42.640;23.372;2023-03-05T02:41:41;20.70;;;13.88;;
69369;SDS011;56530;42.640;23.372;2023-03-05T02:44:07;24.98;;;15.10;;
69369;SDS011;56530;42.640;23.372;2023-03-05T02:46:33;21.33;;;14.15;;
69369;SDS011;56530;42.640;23.372;2023-03-05T02:48:58;19.63;;;13.63;;
69369;SDS011;56530;42.640;23.372;2023-03-05T02:51:23;20.85;;;13.57;;
69369;SDS011;56530;42.640;23.372;2023-03-05T02:53:49;19.40;;;14.65;;
69369;SDS011;56530;42.640;23.372;2023-03-05T02:56:14;22.52;;;12.73;;
69369;SDS011;56530;42.640;23.372;2023-03-05T02:58:40;29.90;;;14.25;;
69369;SDS011;56530;42.640;23.372;2023-03-05T03:01:06;25.65;;;14.02;;
69369;SDS011;56530;42.640;23.372;2023-03-05T03:03:33;20.75;;;14.38;;
69369;SDS011;56530;42.640;23.372;2023-03-05T03:05:58;20.35;;;14.15;;
69369;SDS011;56530;42.640;23.372;2023-03-05T03:08:24;23.08;;;15.00;;
69369;SDS011;56530;42.640;23.372;2023-03-05T03:10:49;20.88;;;15.00;;
69369;SDS011;56530;42.640;23.372;2023-03-05T03:13:14;23.33;;;15.15;;
69369;SDS011;56530;42.640;23.372;2023-03-05T03:15:40;26.38;;;15.98;;
69369;SDS011;56530;42.640;23.372;2023-03-05T03:18:05;26.15;;;16.17;;
69369;SDS011;56530;42.640;23.372;2023-03-05T03:20:31;25.08;;;16.45;;
69369;SDS011;56530;42.640;23.372;2023-03-05T03:22:58;21.52;;;14.85;;
69369;SDS011;56530;42.640;23.372;2023-03-05T03:25:24;29.13;;;16.47;;
69369;SDS011;56530;42.640;23.372;2023-03-05T03:27:50;31.90;;;17.17;;
69369;SDS011;56530;42.640;23.372;2023-03-05T03:30:15;24.63;;;16.57;;
69369;SDS011;56530;42.640;23.372;2023-03-05T03:32:41;24.87;;;14.83;;
69369;SDS011;56530;42.640;23.372;2023-03-05T03:35:07;24.23;;;16.40;;
69369;SDS011;56530;42.640;23.372;2023-03-05T03:37:33;24.33;;;15.47;;
69369;SDS011;56530;42.640;23.372;2023-03-05T03:39:58;26.27;;;14.90;;
69369;SDS011;56530;42.640;23.372;2023-03-05T03:42:24;26.47;;;15.77;;
69369;SDS011;56530;42.640;23.372;2023-03-05T03:44:49;27.90;;;15.47;;
69369;SDS011;56530;42.640;23.372;2023-03-05T03:47:15;23.47;;;15.10;;
69369;SDS011;56530;42.640;23.372;2023-03-05T03:49:41;29.08;;;19.50;;
69369;SDS011;56530;42.640;23.372;2023-03-05T03:52:06;28.47;;;19.97;;
69369;SDS011;56530;42.640;23.372;2023-03-05T03:54:32;32.88;;;15.77;;
69369;SDS011;56530;42.640;23.372;2023-03-05T03:56:57;26.30;;;16.47;;
69369;SDS011;56530;42.640;23.372;2023-03-05T03:59:23;29.67;;;20.07;;
69369;SDS011;56530;42.640;23.372;2023-03-05T04:01:48;26.63;;;19.88;;
69369;SDS011;56530;42.640;23.372;2023-03-05T04:04:14;31.40;;;17.73;;
69369;SDS011;56530;42.640;23.372;2023-03-05T04:06:39;25.02;;;18.33;;
69369;SDS011;56530;42.640;23.372;2023-03-05T04:09:05;24.85;;;17.10;;
69369;SDS011;56530;42.640;23.372;2023-03-05T04:11:32;25.93;;;17.10;;
69369;SDS011;56530;42.640;23.372;2023-03-05T04:13:58;29.48;;;16.45;;
69369;SDS011;56530;42.640;23.372;2023-03-05T04:16:23;31.17;;;17.37;;
69369;SDS011;56530;42.640;23.372;2023-03-05T04:18:49;26.17;;;15.60;;
69369;SDS011;56530;42.640;23.372;2023-03-05T04:21:14;28.27;;;16.50;;
69369;SDS011;56530;42.640;23.372;2023-03-05T04:23:40;25.63;;;16.27;;
69369;SDS011;56530;42.640;23.372;2023-03-05T04:26:05;28.83;;;16.42;;
69369;SDS011;56530;42.640;23.372;2023-03-05T04:28:31;24.08;;;15.73;;
69369;SDS011;56530;42.640;23.372;2023-03-05T04:30:57;26.97;;;17.83;;
69369;SDS011;56530;42.640;23.372;2023-03-05T04:33:22;29.27;;;16.70;;
69369;SDS011;56530;42.640;23.372;2023-03-05T04:35:47;27.73;;;16.47;;
69369;SDS011;56530;42.640;23.372;2023-03-05T04:38:13;24.73;;;16.80;;
69369;SDS011;56530;42.640;23.372;2023-03-05T04:40:38;21.80;;;15.32;;
69369;SDS011;56530;42.640;23.372;2023-03-05T04:43:04;27.25;;;16.65;;
69369;SDS011;56530;42.640;23.372;2023-03-05T04:45:30;26.35;;;17.67;;
69369;SDS011;56530;42.640;23.372;2023-03-05T04:47:55;27.25;;;17.13;;
69369;SDS011;56530;42.640;23.372;2023-03-05T04:50:21;28.00;;;17.77;;
69369;SDS011;56530;42.640;23.372;2023-03-05T04:52:46;28.77;;;17.02;;
69369;SDS011;56530;42.640;23.372;2023-03-05T04:55:12;29.63;;;17.87;;
69369;SDS011;56530;42.640;23.372;2023-03-05T04:57:39;29.77;;;18.27;;
69369;SDS011;56530;42.640;23.372;2023-03-05T05:00:06;27.17;;;18.73;;
69369;SDS011;56530;42.640;23.372;2023-03-05T05:02:41;29.42;;;16.70;;
69369;SDS011;56530;42.640;23.372;2023-03-05T05:05:08;27.05;;;17.08;;
69369;SDS011;56530;42.640;23.372;2023-03-05T05:07:35;28.73;;;15.83;;
69369;SDS011;56530;42.640;23.372;2023-03-05T05:10:01;22.98;;;16.90;;
69369;SDS011;56530;42.640;23.372;2023-03-05T05:12:29;25.43;;;17.30;;
69369;SDS011;56530;42.640;23.372;2023-03-05T05:14:58;23.23;;;16.23;;
69369;SDS011;56530;42.640;23.372;2023-03-05T05:17:23;25.90;;;16.88;;
69369;SDS011;56530;42.640;23.372;2023-03-05T05:19:49;25.50;;;16.67;;
69369;SDS011;56530;42.640;23.372;2023-03-05T05:22:15;25.73;;;16.23;;
69369;SDS011;56530;42.640;23.372;2023-03-05T05:24:40;24.92;;;15.43;;
69369;SDS011;56530;42.640;23.372;2023-03-05T05:27:06;24.95;;;15.90;;
69369;SDS011;56530;42.640;23.372;2023-03-05T05:29:32;25.45;;;18.08;;
69369;SDS011;56530;42.640;23.372;2023-03-05T05:31:57;24.25;;;16.33;;
69369;SDS011;56530;42.640;23.372;2023-03-05T05:34:22;25.27;;;15.60;;
69369;SDS011;56530;42.640;23.372;2023-03-05T05:36:49;22.55;;;14.88;;
69369;SDS011;56530;42.640;23.372;2023-03-05T05:39:15;24.48;;;15.13;;
69369;SDS011;56530;42.640;23.372;2023-03-05T05:41:41;23.75;;;14.38;;
69369;SDS011;56530;42.640;23.372;2023-03-05T05:44:06;24.17;;;14.32;;
69369;SDS011;56530;42.640;23.372;2023-03-05T05:46:31;23.02;;;14.55;;
69369;SDS011;56530;42.640;23.372;2023-03-05T05:48:57;23.23;;;14.98;;
69369;SDS011;56530;42.640;23.372;2023-03-05T05:51:22;23.65;;;14.48;;
69369;SDS011;56530;42.640;23.372;2023-03-05T05:53:48;20.48;;;14.07;;
69369;SDS011;56530;42.640;23.372;2023-03-05T05:56:13;22.65;;;13.68;;
69369;SDS011;56530;42.640;23.372;2023-03-05T05:58:41;21.90;;;13.45;;
69369;SDS011;56530;42.640;23.372;2023-03-05T06:01:12;23.05;;;14.15;;
69369;SDS011;56530;42.640;23.372;2023-03-05T06:03:46;20.05;;;12.98;;
69369;SDS011;56530;42.640;23.372;2023-03-05T06:06:14;27.60;;;15.32;;
69369;SDS011;56530;42.640;23.372;2023-03-05T06:08:40;24.00;;;14.43;;
69369;SDS011;56530;42.640;23.372;2023-03-05T06:11:06;19.50;;;11.95;;
69369;SDS011;56530;42.640;23.372;2023-03-05T06:13:32;16.50;;;11.48;;
69369;SDS011;56530;42.640;23.372;2023-03-05T06:15:59;21.90;;;12.63;;
69369;SDS011;56530;42.640;23.372;2023-03-05T06:18:26;21.95;;;12.05;;
69369;SDS011;56530;42.640;23.372;2023-03-05T06:20:58;17.80;;;12.40;;
69369;SDS011;56530;42.640;23.372;2023-03-05T06:23:26;21.23;;;12.48;;
69369;SDS011;56530;42.640;23.372;2023-03-05T06:25:52;17.05;;;11.75;;
69369;SDS011;56530;42.640;23.372;2023-03-05T06:28:19;18.55;;;12.30;;
69369;SDS011;56530;42.640;23.372;2023-03-05T06:30:45;17.95;;;12.05;;
69369;SDS011;56530;42.640;23.372;2023-03-05T06:33:10;20.67;;;12.07;;
69369;SDS011;56530;42.640;23.372;2023-03-05T06:35:39;20.77;;;12.43;;
69369;SDS011;56530;42.640;23.372;2023-03-05T06:38:05;20.60;;;12.23;;
69369;SDS011;56530;42.640;23.372;2023-03-05T06:40:31;18.17;;;13.55;;
69369;SDS011;56530;42.640;23.372;2023-03-05T06:42:57;19.98;;;12.18;;
69369;SDS011;56530;42.640;23.372;2023-03-05T06:45:22;21.45;;;12.40;;
69369;SDS011;56530;42.640;23.372;2023-03-05T06:47:48;18.63;;;11.98;;
69369;SDS011;56530;42.640;23.372;2023-03-05T06:50:13;19.45;;;12.07;;
69369;SDS011;56530;42.640;23.372;2023-03-05T06:52:39;17.65;;;12.82;;
69369;SDS011;56530;42.640;23.372;2023-03-05T06:55:05;21.55;;;12.38;;
69369;SDS011;56530;42.640;23.372;2023-03-05T06:57:31;18.77;;;11.80;;
69369;SDS011;56530;42.640;23.372;2023-03-05T06:59:56;21.35;;;11.73;;
69369;SDS011;56530;42.640;23.372;2023-03-05T07:02:22;18.13;;;11.55;;
69369;SDS011;56530;42.640;23.372;2023-03-05T07:04:47;20.85;;;11.40;;
69369;SDS011;56530;42.640;23.372;2023-03-05T07:07:13;21.60;;;10.63;;
69369;SDS011;56530;42.640;23.372;2023-03-05T07:09:38;19.38;;;11.43;;
69369;SDS011;56530;42.640;23.372;2023-03-05T07:12:08;19.63;;;11.87;;
69369;SDS011;56530;42.640;23.372;2023-03-05T07:14:35;18.08;;;12.48;;
69369;SDS011;56530;42.640;23.372;2023-03-05T07:17:01;17.67;;;11.77;;
69369;SDS011;56530;42.640;23.372;2023-03-05T07:19:27;15.90;;;11.35;;
69369;SDS011;56530;42.640;23.372;2023-03-05T07:21:53;20.67;;;12.45;;
69369;SDS011;56530;42.640;23.372;2023-03-05T07:24:18;21.73;;;13.80;;
69369;SDS011;56530;42.640;23.372;2023-03-05T07:26:43;25.05;;;11.95;;
69369;SDS011;56530;42.640;23.372;2023-03-05T07:29:09;21.42;;;12.48;;
69369;SDS011;56530;42.640;23.372;2023-03-05T07:31:34;19.65;;;13.13;;
69369;SDS011;56530;42.640;23.372;2023-03-05T07:34:00;20.73;;;14.00;;
69369;SDS011;56530;42.640;23.372;2023-03-05T07:36:27;20.48;;;13.82;;
69369;SDS011;56530;42.640;23.372;2023-03-05T07:38:52;23.20;;;13.85;;
69369;SDS011;56530;42.640;23.372;2023-03-05T07:41:18;22.40;;;13.27;;
69369;SDS011;56530;42.640;23.372;2023-03-05T07:43:45;26.70;;;15.93;;
69369;SDS011;56530;42.640;23.372;2023-03-05T07:46:13;23.83;;;14.50;;
69369;SDS011;56530;42.640;23.372;2023-03-05T07:48:40;23.75;;;15.13;;
69369;SDS011;56530;42.640;23.372;2023-03-05T07:51:06;21.83;;;14.52;;
69369;SDS011;56530;42.640;23.372;2023-03-05T07:53:33;24.00;;;15.43;;
69369;SDS011;56530;42.640;23.372;2023-03-05T07:55:59;25.50;;;15.50;;
69369;SDS011;56530;42.640;23.372;2023-03-05T07:58:24;26.05;;;15.38;;
69369;SDS011;56530;42.640;23.372;2023-03-05T08:00:50;26.13;;;16.23;;
69369;SDS011;56530;42.640;23.372;2023-03-05T08:03:16;25.63;;;15.23;;
69369;SDS011;56530;42.640;23.372;2023-03-05T08:05:41;30.70;;;17.05;;
69369;SDS011;56530;42.640;23.372;2023-03-05T08:08:07;26.67;;;16.67;;
69369;SDS011;56530;42.640;23.372;2023-03-05T08:10:33;32.03;;;16.90;;
69369;SDS011;56530;42.640;23.372;2023-03-05T08:12:59;35.42;;;17.98;;
69369;SDS011;56530;42.640;23.372;2023-03-05T08:15:25;25.33;;;15.95;;
69369;SDS011;56530;42.640;23.372;2023-03-05T08:17:50;31.15;;;17.20;;
69369;SDS011;56530;42.640;23.372;2023-03-05T08:20:16;21.30;;;15.07;;
69369;SDS011;56530;42.640;23.372;2023-03-05T08:22:43;24.52;;;16.67;;
69369;SDS011;56530;42.640;23.372;2023-03-05T08:25:08;30.02;;;16.55;;
69369;SDS011;56530;42.640;23.372;2023-03-05T08:27:36;28.30;;;17.33;;
69369;SDS011;56530;42.640;23.372;2023-03-05T08:30:03;28.45;;;17.50;;
69369;SDS011;56530;42.640;23.372;2023-03-05T08:32:29;28.83;;;16.17;;
69369;SDS011;56530;42.640;23.372;2023-03-05T08:34:55;25.45;;;16.90;;
69369;SDS011;56530;42.640;23.372;2023-03-05T08:37:22;29.13;;;16.70;;
69369;SDS011;56530;42.640;23.372;2023-03-05T08:39:48;33.03;;;17.17;;
69369;SDS011;56530;42.640;23.372;2023-03-05T08:42:14;24.50;;;14.52;;
69369;SDS011;56530;42.640;23.372;2023-03-05T08:44:39;26.98;;;17.08;;
69369;SDS011;56530;42.640;23.372;2023-03-05T08:47:05;24.42;;;16.30;;
69369;SDS011;56530;42.640;23.372;2023-03-05T08:49:30;24.10;;;16.75;;
69369;SDS011;56530;42.640;23.372;2023-03-05T08:51:56;23.42;;;15.93;;
69369;SDS011;56530;42.640;23.372;2023-03-05T08:54:21;25.60;;;17.17;;
69369;SDS011;56530;42.640;23.372;2023-03-05T08:56:46;27.35;;;18.60;;
69369;SDS011;56530;42.640;23.372;2023-03-05T08:59:14;24.98;;;17.90;;
69369;SDS011;56530;42.640;23.372;2023-03-05T09:01:39;24.27;;;16.75;;
69369;SDS011;56530;42.640;23.372;2023-03-05T09:04:05;24.58;;;15.75;;
69369;SDS011;56530;42.640;23.372;2023-03-05T09:06:30;28.33;;;16.58;;
69369;SDS011;56530;42.640;23.372;2023-03-05T09:08:56;24.15;;;15.75;;
69369;SDS011;56530;42.640;23.372;2023-03-05T09:11:21;24.65;;;13.95;;
69369;SDS011;56530;42.640;23.372;2023-03-05T09:13:47;27.75;;;17.25;;
69369;SDS011;56530;42.640;23.372;2023-03-05T09:16:14;21.52;;;15.90;;
69369;SDS011;56530;42.640;23.372;2023-03-05T09:18:40;22.05;;;16.42;;
69369;SDS011;56530;42.640;23.372;2023-03-05T09:21:07;23.60;;;15.63;;
69369;SDS011;56530;42.640;23.372;2023-03-05T09:23:35;23.77;;;16.50;;
69369;SDS011;56530;42.640;23.372;2023-03-05T09:26:00;25.05;;;16.13;;
69369;SDS011;56530;42.640;23.372;2023-03-05T09:28:26;23.88;;;16.98;;
69369;SDS011;56530;42.640;23.372;2023-03-05T09:30:51;25.92;;;14.82;;
69369;SDS011;56530;42.640;23.372;2023-03-05T09:33:17;23.67;;;15.10;;
69369;SDS011;56530;42.640;23.372;2023-03-05T09:35:42;23.00;;;14.75;;
69369;SDS011;56530;42.640;23.372;2023-03-05T09:38:08;23.42;;;15.25;;
69369;SDS011;56530;42.640;23.372;2023-03-05T09:40:44;21.70;;;14.50;;
69369;SDS011;56530;42.640;23.372;2023-03-05T09:48:34;22.35;;;14.40;;
69369;SDS011;56530;42.640;23.372;2023-03-05T09:51:25;19.73;;;13.50;;
69369;SDS011;56530;42.640;23.372;2023-03-05T09:53:56;18.98;;;14.50;;
69369;SDS011;56530;42.640;23.372;2023-03-05T09:56:28;18.23;;;14.05;;
69369;SDS011;56530;42.640;23.372;2023-03-05T09:58:57;17.55;;;13.20;;
69369;SDS011;56530;42.640;23.372;2023-03-05T10:01:39;19.48;;;13.63;;
69369;SDS011;56530;42.640;23.372;2023-03-05T10:07:32;23.23;;;14.85;;
69369;SDS011;56530;42.640;23.372;2023-03-05T10:12:39;28.52;;;14.50;;
69369;SDS011;56530;42.640;23.372;2023-03-05T10:15:19;19.65;;;14.05;;
69369;SDS011;56530;42.640;23.372;2023-03-05T10:21:27;17.73;;;11.38;;
69369;SDS011;56530;42.640;23.372;2023-03-05T10:24:40;17.88;;;11.85;;
69369;SDS011;56530;42.640;23.372;2023-03-05T10:26:55;19.45;;;13.30;;
69369;SDS011;56530;42.640;23.372;2023-03-05T10:30:01;18.48;;;12.82;;
69369;SDS011;56530;42.640;23.372;2023-03-05T10:38:43;19.98;;;13.27;;
69369;SDS011;56530;42.640;23.372;2023-03-05T10:41:32;21.25;;;15.30;;
69369;SDS011;56530;42.640;23.372;2023-03-05T10:44:25;23.27;;;15.15;;
69369;SDS011;56530;42.640;23.372;2023-03-05T10:47:07;20.08;;;14.10;;
69369;SDS011;56530;42.640;23.372;2023-03-05T10:49:42;19.05;;;12.70;;
69369;SDS011;56530;42.640;23.372;2023-03-05T10:52:23;19.05;;;13.45;;
69369;SDS011;56530;42.640;23.372;2023-03-05T10:54:51;20.67;;;12.77;;
69369;SDS011;56530;42.640;23.372;2023-03-05T10:57:20;17.42;;;12.13;;
69369;SDS011;56530;42.640;23.372;2023-03-05T10:59:52;14.38;;;11.15;;
69369;SDS011;56530;42.640;23.372;2023-03-05T11:02:20;21.20;;;12.18;;
69369;SDS011;56530;42.640;23.372;2023-03-05T11:04:46;16.75;;;11.55;;
69369;SDS011;56530;42.640;23.372;2023-03-05T11:12:29;17.40;;;10.93;;
69369;SDS011;56530;42.640;23.372;2023-03-05T11:17:32;16.88;;;11.20;;
69369;SDS011;56530;42.640;23.372;2023-03-05T11:25:55;15.27;;;11.05;;
69369;SDS011;56530;42.640;23.372;2023-03-05T11:28:35;18.73;;;9.82;;
69369;SDS011;56530;42.640;23.372;2023-03-05T11:36:30;15.43;;;10.68;;
69369;SDS011;56530;42.640;23.372;2023-03-05T11:38:58;18.95;;;11.00;;
69369;SDS011;56530;42.640;23.372;2023-03-05T11:44:28;16.63;;;11.45;;
69369;SDS011;56530;42.640;23.372;2023-03-05T11:47:03;15.73;;;10.90;;
69369;SDS011;56530;42.640;23.372;2023-03-05T11:49:40;16.60;;;11.48;;
69369;SDS011;56530;42.640;23.372;2023-03-05T12:00:36;18.08;;;12.50;;
69369;SDS011;56530;42.640;23.372;2023-03-05T12:03:04;15.52;;;11.40;;
69369;SDS011;56530;42.640;23.372;2023-03-05T12:05:34;15.90;;;11.63;;
69369;SDS011;56530;42.640;23.372;2023-03-05T12:08:01;17.52;;;12.25;;
69369;SDS011;56530;42.640;23.372;2023-03-05T12:10:27;17.67;;;12.05;;
69369;SDS011;56530;42.640;23.372;2023-03-05T12:12:57;15.95;;;10.90;;
69369;SDS011;56530;42.640;23.372;2023-03-05T12:15:46;17.38;;;10.43;;
69369;SDS011;56530;42.640;23.372;2023-03-05T12:18:24;16.02;;;11.27;;
69369;SDS011;56530;42.640;23.372;2023-03-05T12:21:04;15.10;;;11.23;;
69369;SDS011;56530;42.640;23.372;2023-03-05T12:23:45;14.20;;;10.00;;
69369;SDS011;56530;42.640;23.372;2023-03-05T12:26:12;14.43;;;9.77;;
69369;SDS011;56530;42.640;23.372;2023-03-05T12:33:51;13.07;;;10.23;;
69369;SDS011;56530;42.640;23.372;2023-03-05T12:38:55;14.98;;;12.32;;
69369;SDS011;56530;42.640;23.372;2023-03-05T12:46:31;17.05;;;11.52;;
69369;SDS011;56530;42.640;23.372;2023-03-05T12:50:01;19.15;;;11.48;;
69369;SDS011;56530;42.640;23.372;2023-03-05T12:52:02;14.82;;;11.45;;
69369;SDS011;56530;42.640;23.372;2023-03-05T12:57:00;14.25;;;9.63;;
69369;SDS011;56530;42.640;23.372;2023-03-05T13:02:37;12.32;;;10.48;;
69369;SDS011;56530;42.640;23.372;2023-03-05T13:05:06;15.65;;;11.20;;
69369;SDS011;56530;42.640;23.372;2023-03-05T13:07:44;16.33;;;10.77;;
69369;SDS011;56530;42.640;23.372;2023-03-05T13:10:24;13.43;;;10.68;;
69369;SDS011;56530;42.640;23.372;2023-03-05T13:12:52;15.88;;;11.02;;
69369;SDS011;56530;42.640;23.372;2023-03-05T13:15:18;14.52;;;10.60;;
69369;SDS011;56530;42.640;23.372;2023-03-05T13:28:37;14.60;;;10.52;;
69369;SDS011;56530;42.640;23.372;2023-03-05T13:31:17;20.20;;;11.65;;
69369;SDS011;56530;42.640;23.372;2023-03-05T13:34:10;21.10;;;10.75;;
69369;SDS011;56530;42.640;23.372;2023-03-05T13:36:44;15.15;;;10.48;;
69369;SDS011;56530;42.640;23.372;2023-03-05T13:39:16;14.13;;;10.20;;
69369;SDS011;56530;42.640;23.372;2023-03-05T13:41:58;15.77;;;11.63;;
69369;SDS011;56530;42.640;23.372;2023-03-05T13:44:26;19.42;;;10.57;;
69369;SDS011;56530;42.640;23.372;2023-03-05T13:47:04;14.40;;;9.95;;
69369;SDS011;56530;42.640;23.372;2023-03-05T13:49:40;16.83;;;10.90;;
69369;SDS011;56530;42.640;23.372;2023-03-05T13:52:06;20.90;;;10.32;;
69369;SDS011;56530;42.640;23.372;2023-03-05T13:54:32;16.35;;;10.90;;
69369;SDS011;56530;42.640;23.372;2023-03-05T13:56:59;21.17;;;11.23;;
69369;SDS011;56530;42.640;23.372;2023-03-05T13:59:27;18.92;;;11.05;;
69369;SDS011;56530;42.640;23.372;2023-03-05T14:01:55;20.25;;;13.05;;
69369;SDS011;56530;42.640;23.372;2023-03-05T14:04:28;20.48;;;12.07;;
69369;SDS011;56530;42.640;23.372;2023-03-05T14:07:17;15.32;;;11.32;;
69369;SDS011;56530;42.640;23.372;2023-03-05T14:10:22;15.13;;;9.68;;
69369;SDS011;56530;42.640;23.372;2023-03-05T14:12:50;17.88;;;11.20;;
69369;SDS011;56530;42.640;23.372;2023-03-05T14:21:06;18.42;;;12.23;;
69369;SDS011;56530;42.640;23.372;2023-03-05T14:31:25;16.65;;;11.70;;
69369;SDS011;56530;42.640;23.372;2023-03-05T14:33:52;18.92;;;12.18;;
69369;SDS011;56530;42.640;23.372;2023-03-05T14:36:21;15.18;;;10.85;;
69369;SDS011;56530;42.640;23.372;2023-03-05T14:38:47;22.45;;;12.48;;
69369;SDS011;56530;42.640;23.372;2023-03-05T14:41:20;18.70;;;11.32;;
69369;SDS011;56530;42.640;23.372;2023-03-05T14:43:46;18.08;;;11.57;;
69369;SDS011;56530;42.640;23.372;2023-03-05T14:46:12;17.27;;;12.43;;
69369;SDS011;56530;42.640;23.372;2023-03-05T14:48:37;15.93;;;11.45;;
69369;SDS011;56530;42.640;23.372;2023-03-05T14:51:03;17.00;;;11.02;;
69369;SDS011;56530;42.640;23.372;2023-03-05T14:53:35;20.10;;;12.70;;
69369;SDS011;56530;42.640;23.372;2023-03-05T14:56:03;15.57;;;10.80;;
69369;SDS011;56530;42.640;23.372;2023-03-05T14:58:31;14.40;;;10.85;;
69369;SDS011;56530;42.640;23.372;2023-03-05T15:00:58;17.92;;;11.77;;
69369;SDS011;56530;42.640;23.372;2023-03-05T15:03:24;19.80;;;11.43;;
69369;SDS011;56530;42.640;23.372;2023-03-05T15:05:50;18.38;;;12.60;;
69369;SDS011;56530;42.640;23.372;2023-03-05T15:08:28;18.83;;;12.52;;
69369;SDS011;56530;42.640;23.372;2023-03-05T15:10:55;19.92;;;12.82;;
69369;SDS011;56530;42.640;23.372;2023-03-05T15:13:20;25.20;;;12.73;;
69369;SDS011;56530;42.640;23.372;2023-03-05T15:15:46;15.73;;;11.65;;
69369;SDS011;56530;42.640;23.372;2023-03-05T15:18:13;17.25;;;12.00;;
69369;SDS011;56530;42.640;23.372;2023-03-05T15:20:40;18.08;;;11.55;;
69369;SDS011;56530;42.640;23.372;2023-03-05T15:23:06;15.52;;;11.05;;
69369;SDS011;56530;42.640;23.372;2023-03-05T15:25:31;17.27;;;11.60;;
69369;SDS011;56530;42.640;23.372;2023-03-05T15:27:57;17.40;;;11.38;;
69369;SDS011;56530;42.640;23.372;2023-03-05T15:32:52;18.33;;;12.80;;
69369;SDS011;56530;42.640;23.372;2023-03-05T15:35:19;20.77;;;13.05;;
69369;SDS011;56530;42.640;23.372;2023-03-05T15:37:45;18.83;;;12.40;;
69369;SDS011;56530;42.640;23.372;2023-03-05T15:40:10;14.95;;;11.40;;
69369;SDS011;56530;42.640;23.372;2023-03-05T15:42:36;19.17;;;13.40;;
69369;SDS011;56530;42.640;23.372;2023-03-05T15:45:02;22.40;;;11.52;;
69369;SDS011;56530;42.640;23.372;2023-03-05T15:47:27;20.25;;;11.77;;
69369;SDS011;56530;42.640;23.372;2023-03-05T15:49:53;17.90;;;11.50;;
69369;SDS011;56530;42.640;23.372;2023-03-05T15:52:18;20.40;;;12.23;;